Markleeville, CA

10:26 PM PDT on October 21, 2014 (GMT -0700)
RAWS MARKLEEVILLE CA US | Change Station
CLOSE
Current Station
Personal Weather Station
Location: Markleeville, CA
Elevation: 5500 ft
Nearby Weather Stations

Elev 5500 ft 38.69 °N, 119.77 °W | Updated 38 minutes ago

Clear
Clear
42 °F
Feels Like 42 °F
N
1
Wind Variable Wind from WSW
Gusts 4.0 mph

Today
High -- | Low -- °F
--% Chance of Precip.
Yesterday
High -- | Low -- °F
Precip. -- in
7:14 AM 6:12 PM
Waning Crescent, 3% visible
Pressure 30.05 in
Visibility 10.0 miles
Clouds Clear
Windchill 42 °F
Dew Point 32 °F
Humidity 68%
Rainfall 0.01 in
Snow Depth 1 in , 0 in , 1 in
UV 0 out of 12
Pollen 1.90 out of 12
Air Quality Not available.
Flu Activity Sporadic
METAR KTVL 220453Z AUTO 00000KT 10SM CLR 03/M01 A3012 RMK AO2 SLP176 T00331006 $

More Conditions Fewer Conditions

Pressure 30.05 in
Visibility 10.0 miles
Clouds Clear
Windchill 42 °F
Dew Point 32 °F
Humidity 68%
Rainfall 0.01 in
Snow Depth 1 in , 0 in , 1 in
UV 0 out of 12
Pollen 1.90 out of 12
Air Quality Not available.
Flu Activity Sporadic
METAR KTVL 220453Z AUTO 00000KT 10SM CLR 03/M01 A3012 RMK AO2 SLP176 T00331006 $

More Conditions Fewer Conditions

10-Day Weather Forecast

Almanac

Astronomy

Oct. 21, 2014 Rise Set
Actual Time 7:14 AM PDT 6:12 PM PDT
Civil Twilight 6:47 AM PDT 6:39 PM PDT
Nautical Twilight 6:16 AM PDT 7:10 PM PDT
Astronomical Twilight 5:45 AM PDT 7:41 PM PDT
Moon 5:05 AM PDT (10/21) 5:08 PM PDT (10/21)
Length of Visible Light 11h 51m
Length of Day
10h 57m
Tomorrow will be 2m 21s shorter.
Waning Crescent, 3% of the Moon is Illuminated
Oct 22
Waning Crescent
Oct 23
New
Oct 30
First Quarter
Nov 6
Full
Nov 14
Last Quarter

Yesterday's Extremes

State Highs State Lows

Community

WunderPhotos

Upload Photos

1,763,884 photos uploaded!

Nearby

Snow Depth

Station Depth Elevation
Burnside Lake 1 in 8139 ft
Spratt Creek 0 in 6200 ft
Forestdale Creek 1 in 8029 ft
Carson Pass 0 in 8500 ft
Hagan's Meadow 0 in 8000 ft

Earthquake Activity

City Distance Mag. Time & Date
Mammoth Lakes, California 104 miles 3.0 11:10 PM PDT
2014-10-20
Dixon Lane-Meadow Creek, California 110 miles 2.6 5:32 PM PDT
2014-10-18
Minimum magnitude displayed is 2.5.

Coastal Water Temperatures

Place Temperature
No Stations Reporting

Nearby Weather Stations